FEZ weather

Saïss Airport
Fes, Fès Province, Morocco

Public forecast

Using degrees Celsius for public forecast. Weather courtesy of forecast.io.

Current aviation weather report (METAR) for Saïss Airport

Retrieved 2020/01/23 07:30 UTC (0 seconds ago):

GMFF 230730Z 16005KT 9999 SCT033 SCT100 04/02 Q1017 NOSIG

Aviation forecast (TAF) for Saïss Airport

Retrieved 2020/01/23 06:24 UTC (59 minutes ago):

TAF TAF GMFF 230500Z 2306/2412 18008KT 9999 SCT030 SCT100 BECMG 2408/2410 CAVOK